Time;durP1;ratioP1;P1;durP2;ratioP2;P2;SDS_P1;SDS_P2;PMS_P1;PMS_P2;Temp;Humidity;BMP_temperature;BMP_pressure;BME280_temperature;BME280_humidity;BME280_pressure;Samples;Min_cycle;Max_cycle;Signal;HPM_P1;HPM_P2
2023/07/19 00:01:46;;;;;;;6.60;4.00;;;18.00;99.90;;;;;;5066358;28;20642;-72
2023/07/19 00:04:13;;;;;;;4.50;3.60;;;18.00;99.90;;;;;;5064245;28;20646;-72
2023/07/19 00:06:40;;;;;;;8.90;3.87;;;18.00;99.90;;;;;;5067657;28;20641;-72
2023/07/19 00:09:08;;;;;;;4.13;3.73;;;18.20;99.90;;;;;;5067815;28;20629;-72
2023/07/19 00:11:35;;;;;;;4.63;4.23;;;18.20;99.90;;;;;;5067895;28;20757;-72
2023/07/19 00:14:05;;;;;;;3.80;3.37;;;18.30;99.90;;;;;;5067388;28;20631;-72
2023/07/19 00:16:32;;;;;;;4.80;4.30;;;18.30;99.90;;;;;;5056638;28;20653;-72
2023/07/19 00:18:59;;;;;;;4.80;4.33;;;18.20;99.90;;;;;;5062695;28;20991;-73
2023/07/19 00:21:26;;;;;;;6.90;4.07;;;18.20;99.90;;;;;;5066508;28;20748;-73
2023/07/19 00:23:53;;;;;;;4.83;4.33;;;18.30;99.90;;;;;;5064945;28;20626;-73
2023/07/19 00:26:21;;;;;;;5.47;3.57;;;18.40;99.90;;;;;;5067600;28;20676;-73
2023/07/19 00:28:48;;;;;;;4.80;4.30;;;18.30;99.90;;;;;;5060453;28;20620;-73
2023/07/19 00:31:14;;;;;;;4.83;3.83;;;18.40;99.90;;;;;;5067509;28;20657;-73
2023/07/19 00:33:41;;;;;;;4.90;4.20;;;18.40;99.90;;;;;;5057749;28;20665;-73
2023/07/19 00:36:08;;;;;;;4.50;3.80;;;18.40;99.90;;;;;;5058302;28;20660;-73
2023/07/19 00:38:35;;;;;;;5.13;3.97;;;18.30;99.90;;;;;;5063721;28;20625;-73
2023/07/19 00:41:02;;;;;;;4.70;4.07;;;18.20;99.90;;;;;;5059697;28;20777;-73
2023/07/19 00:43:30;;;;;;;7.60;5.10;;;18.20;99.90;;;;;;5059473;28;21198;-73
2023/07/19 00:45:57;;;;;;;4.97;4.53;;;18.10;99.90;;;;;;5067988;28;20692;-73
2023/07/19 00:48:24;;;;;;;3.93;3.63;;;18.10;99.90;;;;;;5066809;28;20630;-73
2023/07/19 00:50:53;;;;;;;4.40;4.00;;;18.20;99.90;;;;;;5066138;28;20654;-73
2023/07/19 00:53:21;;;;;;;5.43;4.20;;;18.10;99.90;;;;;;5066939;28;21174;-73
2023/07/19 00:55:50;;;;;;;4.00;3.60;;;18.20;99.90;;;;;;5064303;28;20649;-73
2023/07/19 00:58:18;;;;;;;6.40;3.93;;;18.10;99.90;;;;;;5062097;28;20618;-73
2023/07/19 01:00:46;;;;;;;4.17;3.73;;;18.10;99.90;;;;;;5064525;28;20667;-73
2023/07/19 01:03:13;;;;;;;4.70;3.80;;;18.10;99.90;;;;;;5065442;28;21255;-73
2023/07/19 01:05:40;;;;;;;6.50;4.93;;;18.10;99.90;;;;;;5059827;28;20670;-73
2023/07/19 01:08:07;;;;;;;4.40;4.00;;;18.20;99.90;;;;;;5056542;28;20660;-73
2023/07/19 01:10:34;;;;;;;5.47;4.87;;;18.10;99.90;;;;;;5062305;28;20657;-73
2023/07/19 01:13:03;;;;;;;3.80;3.40;;;17.90;99.90;;;;;;5064075;28;20629;-73
2023/07/19 01:15:31;;;;;;;10.90;3.50;;;17.90;99.90;;;;;;5061168;28;20752;-73
2023/07/19 01:18:00;;;;;;;7.50;4.60;;;17.80;99.90;;;;;;5064830;28;21174;-73
2023/07/19 01:20:27;;;;;;;4.20;3.53;;;17.80;99.90;;;;;;5066952;28;20699;-73
2023/07/19 01:22:57;;;;;;;4.40;3.90;;;17.90;99.90;;;;;;5060385;28;20618;-73
2023/07/19 01:25:25;;;;;;;3.60;3.30;;;17.90;99.90;;;;;;5059593;28;20665;-73
2023/07/19 01:27:53;;;;;;;3.77;3.30;;;17.90;99.90;;;;;;5065876;28;20649;-73
2023/07/19 01:30:21;;;;;;;4.00;3.70;;;18.00;99.90;;;;;;5064930;28;20630;-73
2023/07/19 01:32:48;;;;;;;5.07;4.50;;;18.10;99.90;;;;;;5067244;28;20626;-73
2023/07/19 01:35:17;;;;;;;9.27;4.87;;;18.10;99.90;;;;;;5070456;28;20637;-73
2023/07/19 01:37:44;;;;;;;6.10;5.43;;;18.10;99.90;;;;;;5063221;28;20935;-73
2023/07/19 01:40:14;;;;;;;7.03;4.57;;;18.00;99.90;;;;;;5066701;28;20750;-73
2023/07/19 01:42:41;;;;;;;5.87;4.13;;;17.90;99.90;;;;;;5063988;28;20634;-73
2023/07/19 01:45:09;;;;;;;7.33;4.00;;;17.80;99.90;;;;;;5070424;28;20653;-73
2023/07/19 01:47:37;;;;;;;6.07;3.93;;;17.80;99.90;;;;;;5070525;28;20617;-73
2023/07/19 01:50:05;;;;;;;4.87;4.10;;;17.70;99.90;;;;;;5065107;28;20636;-73
2023/07/19 01:52:34;;;;;;;4.97;3.63;;;17.80;99.90;;;;;;5066923;28;20738;-73
2023/07/19 01:55:01;;;;;;;5.70;4.13;;;17.80;99.90;;;;;;5067332;28;20636;-73
2023/07/19 01:57:30;;;;;;;4.47;4.07;;;17.80;99.90;;;;;;5066543;28;21213;-73
2023/07/19 01:59:59;;;;;;;6.23;4.50;;;17.70;99.90;;;;;;5061373;28;21212;-73
2023/07/19 02:02:26;;;;;;;4.67;4.20;;;17.60;99.90;;;;;;5060475;28;20649;-73
2023/07/19 02:04:54;;;;;;;7.90;3.97;;;17.50;99.90;;;;;;5065585;28;20645;-73
2023/07/19 02:07:23;;;;;;;7.73;3.80;;;17.50;99.90;;;;;;5071006;28;20703;-73
2023/07/19 02:09:50;;;;;;;7.63;4.37;;;17.60;99.90;;;;;;5063383;28;20625;-73
2023/07/19 02:12:19;;;;;;;4.80;4.17;;;17.50;99.90;;;;;;5068932;28;20645;-73
2023/07/19 02:14:48;;;;;;;5.67;3.67;;;17.50;99.90;;;;;;5063705;28;20634;-73
2023/07/19 02:17:16;;;;;;;5.90;4.10;;;17.50;99.90;;;;;;5062444;28;20738;-73
2023/07/19 02:19:44;;;;;;;7.27;4.83;;;17.50;99.90;;;;;;5065170;28;20625;-73
2023/07/19 02:22:12;;;;;;;4.67;4.27;;;17.60;99.90;;;;;;5068331;28;20648;-73
2023/07/19 02:24:39;;;;;;;7.33;3.97;;;17.60;99.90;;;;;;5069962;28;20621;-73
2023/07/19 02:27:06;;;;;;;6.10;3.20;;;17.50;99.90;;;;;;5060021;28;21262;-73
2023/07/19 02:29:33;;;;;;;7.97;3.60;;;17.50;99.90;;;;;;5068225;28;20645;-73
2023/07/19 02:32:01;;;;;;;4.47;4.07;;;17.30;99.90;;;;;;5068411;28;20780;-73
2023/07/19 02:34:30;;;;;;;4.47;3.30;;;17.30;99.90;;;;;;5065554;28;20629;-73
2023/07/19 02:36:57;;;;;;;4.90;4.00;;;17.30;99.90;;;;;;5069686;28;20633;-73
2023/07/19 02:39:26;;;;;;;4.30;3.90;;;17.30;99.90;;;;;;5063077;28;20629;-73
2023/07/19 02:41:54;;;;;;;5.03;3.87;;;17.40;99.90;;;;;;5066349;28;20653;-73
2023/07/19 02:44:21;;;;;;;4.03;3.73;;;17.30;99.90;;;;;;5063605;28;20667;-73
2023/07/19 02:46:49;;;;;;;4.30;3.80;;;17.30;99.90;;;;;;5062361;28;21264;-73
2023/07/19 02:49:18;;;;;;;6.23;4.50;;;17.30;99.90;;;;;;5064910;28;20630;-73
2023/07/19 02:51:46;;;;;;;6.23;3.93;;;17.20;99.90;;;;;;5062648;28;20646;-73
2023/07/19 02:54:13;;;;;;;5.00;4.33;;;17.20;99.90;;;;;;5067660;28;20995;-72
2023/07/19 02:56:42;;;;;;;8.20;3.87;;;17.20;99.90;;;;;;5063653;28;21077;-73
2023/07/19 02:59:10;;;;;;;6.10;4.07;;;17.20;99.90;;;;;;5059601;28;20631;-73
2023/07/19 03:01:37;;;;;;;4.30;3.90;;;17.10;99.90;;;;;;5063905;28;20641;-72
2023/07/19 03:04:06;;;;;;;7.03;3.97;;;17.10;99.90;;;;;;5067456;28;21118;-73
2023/07/19 03:06:34;;;;;;;4.20;3.63;;;17.10;99.90;;;;;;5064057;28;20669;-73
2023/07/19 03:09:03;;;;;;;5.33;4.83;;;17.00;99.90;;;;;;5067574;28;20633;-73
2023/07/19 03:11:31;;;;;;;3.93;3.20;;;17.00;99.90;;;;;;5062565;28;20653;-73
2023/07/19 03:13:58;;;;;;;5.50;4.23;;;17.00;99.90;;;;;;5058536;28;21030;-73
2023/07/19 03:16:25;;;;;;;6.83;5.07;;;17.00;99.90;;;;;;5061291;28;20708;-73
2023/07/19 03:18:54;;;;;;;4.60;3.40;;;17.00;99.90;;;;;;5068447;28;20621;-72
2023/07/19 03:21:22;;;;;;;4.17;3.70;;;17.00;99.90;;;;;;5063905;28;20709;-73
2023/07/19 03:23:52;;;;;;;4.60;3.60;;;17.00;99.90;;;;;;5067769;28;20644;-73
2023/07/19 03:26:20;;;;;;;5.90;4.57;;;17.00;99.90;;;;;;5065205;28;21342;-73
2023/07/19 03:28:47;;;;;;;3.63;3.10;;;17.00;99.90;;;;;;5068244;28;20671;-73
2023/07/19 03:31:16;;;;;;;3.53;2.80;;;17.00;99.90;;;;;;5066137;28;20692;-73
2023/07/19 03:33:43;;;;;;;5.23;3.77;;;17.00;99.90;;;;;;5065177;28;20625;-73
2023/07/19 03:36:12;;;;;;;5.00;4.50;;;17.00;99.90;;;;;;5065420;28;20638;-73
2023/07/19 03:38:41;;;;;;;4.00;3.60;;;17.00;99.90;;;;;;5069017;28;20978;-73
2023/07/19 03:41:11;;;;;;;4.47;3.50;;;17.00;99.90;;;;;;5067746;28;21085;-73
2023/07/19 03:43:39;;;;;;;4.20;3.80;;;17.00;99.90;;;;;;5069047;28;20614;-74
2023/07/19 03:46:06;;;;;;;5.53;4.43;;;17.00;99.90;;;;;;5059280;28;21163;-73
2023/07/19 03:48:35;;;;;;;9.03;3.97;;;17.00;99.90;;;;;;5062803;28;20961;-73
2023/07/19 03:51:02;;;;;;;4.40;4.00;;;17.00;99.90;;;;;;5066905;28;21172;-73
2023/07/19 03:53:29;;;;;;;3.80;3.43;;;17.00;99.90;;;;;;5053416;28;20713;-73
2023/07/19 03:55:58;;;;;;;4.07;3.67;;;16.90;99.90;;;;;;5066251;28;20650;-74
2023/07/19 03:58:27;;;;;;;3.70;3.13;;;16.90;99.90;;;;;;5064064;28;20622;-74
2023/07/19 04:00:54;;;;;;;3.93;3.53;;;16.90;99.90;;;;;;5067891;28;20737;-74
2023/07/19 04:03:22;;;;;;;3.90;3.60;;;16.90;99.90;;;;;;5067239;28;20622;-74
2023/07/19 04:05:49;;;;;;;5.70;4.37;;;16.90;99.90;;;;;;5067453;28;20710;-74
2023/07/19 04:08:17;;;;;;;5.70;2.97;;;16.90;99.90;;;;;;5068208;28;21197;-76
2023/07/19 04:10:44;;;;;;;5.43;3.73;;;16.80;99.90;;;;;;5066244;28;21253;-76
2023/07/19 04:13:11;;;;;;;4.97;4.27;;;16.80;99.90;;;;;;5065709;28;20625;-75
2023/07/19 04:15:39;;;;;;;4.07;3.70;;;16.80;99.90;;;;;;5068016;28;20641;-76
2023/07/19 04:18:06;;;;;;;5.13;3.77;;;16.80;99.90;;;;;;5068154;28;21098;-76
2023/07/19 04:20:36;;;;;;;5.80;4.43;;;16.80;99.90;;;;;;5067625;28;21009;-76
2023/07/19 04:23:03;;;;;;;5.90;3.27;;;16.80;99.90;;;;;;5067187;28;20622;-76
2023/07/19 04:25:31;;;;;;;4.97;4.20;;;16.70;99.90;;;;;;5067986;28;20646;-76
2023/07/19 04:27:57;;;;;;;4.87;3.50;;;16.80;99.90;;;;;;5068297;28;21233;-76
2023/07/19 04:30:24;;;;;;;6.50;4.07;;;16.80;99.90;;;;;;5064899;28;20732;-76
2023/07/19 04:32:54;;;;;;;4.73;4.27;;;16.90;99.90;;;;;;5067088;28;21194;-76
2023/07/19 04:35:22;;;;;;;5.40;4.60;;;16.90;99.90;;;;;;5067766;28;20674;-77
2023/07/19 04:37:49;;;;;;;6.20;4.80;;;17.00;99.90;;;;;;5067701;28;21508;-77
2023/07/19 04:40:16;;;;;;;6.90;5.17;;;17.10;99.90;;;;;;5067403;28;20633;-77
2023/07/19 04:42:43;;;;;;;6.87;4.37;;;17.00;99.90;;;;;;5067483;28;21001;-76
2023/07/19 04:45:11;;;;;;;8.47;5.30;;;17.00;99.90;;;;;;5067818;28;21419;-75
2023/07/19 04:47:38;;;;;;;6.20;4.53;;;17.10;99.90;;;;;;5063590;28;21064;-75
2023/07/19 04:50:07;;;;;;;5.20;4.70;;;17.20;99.90;;;;;;5065260;28;20625;-75
2023/07/19 04:52:34;;;;;;;4.70;4.23;;;17.20;99.90;;;;;;5062024;28;20622;-74
2023/07/19 04:55:02;;;;;;;5.03;3.97;;;17.30;99.90;;;;;;5061999;28;21200;-75
2023/07/19 04:57:28;;;;;;;6.23;3.70;;;17.30;99.90;;;;;;5061795;28;20623;-75
2023/07/19 04:59:55;;;;;;;4.80;4.40;;;17.30;99.90;;;;;;5058594;28;20617;-75
2023/07/19 05:02:22;;;;;;;8.33;5.70;;;17.40;99.90;;;;;;5066720;28;20677;-75
2023/07/19 05:04:49;;;;;;;5.03;4.57;;;17.40;99.90;;;;;;5066893;28;20949;-75
2023/07/19 05:07:17;;;;;;;4.90;4.00;;;17.50;99.90;;;;;;5067439;28;20661;-75
2023/07/19 05:09:44;;;;;;;6.30;4.53;;;17.60;99.90;;;;;;5067038;28;20728;-75
2023/07/19 05:12:11;;;;;;;7.53;3.93;;;17.70;99.90;;;;;;5067183;28;20744;-75
2023/07/19 05:14:38;;;;;;;4.33;3.43;;;17.70;99.90;;;;;;5067461;28;21200;-75
2023/07/19 05:17:06;;;;;;;4.30;3.90;;;17.80;99.90;;;;;;5066838;28;20992;-75
2023/07/19 05:19:33;;;;;;;6.27;4.60;;;17.80;99.90;;;;;;5066981;28;20634;-75
2023/07/19 05:21:59;;;;;;;4.73;4.17;;;17.80;99.90;;;;;;5067559;28;21154;-75
2023/07/19 05:24:27;;;;;;;5.33;4.20;;;17.90;99.90;;;;;;5065975;28;20625;-75
2023/07/19 05:26:54;;;;;;;4.80;3.63;;;18.00;99.90;;;;;;5057653;28;21064;-75
2023/07/19 05:29:22;;;;;;;5.77;5.17;;;18.10;99.90;;;;;;5066851;28;20641;-75
2023/07/19 05:31:48;;;;;;;5.50;3.90;;;18.20;99.90;;;;;;5066104;28;20793;-75
2023/07/19 05:34:15;;;;;;;11.30;4.23;;;18.30;99.90;;;;;;5067169;28;20621;-75
2023/07/19 05:36:42;;;;;;;4.53;3.50;;;18.30;99.90;;;;;;5067171;28;20637;-75
2023/07/19 05:39:09;;;;;;;3.63;3.30;;;18.20;99.90;;;;;;5063135;28;21102;-75
2023/07/19 05:41:37;;;;;;;3.93;3.13;;;18.40;99.90;;;;;;5061276;28;20736;-75
2023/07/19 05:44:04;;;;;;;4.70;3.63;;;18.40;99.90;;;;;;5066326;28;20716;-75
2023/07/19 05:46:31;;;;;;;4.37;3.60;;;18.50;99.90;;;;;;5066644;28;20676;-75
2023/07/19 05:48:58;;;;;;;4.60;3.77;;;18.50;99.90;;;;;;5066369;28;20622;-75
2023/07/19 05:51:25;;;;;;;6.30;3.37;;;18.60;99.90;;;;;;5067265;28;20649;-75
2023/07/19 05:53:51;;;;;;;3.30;2.83;;;18.70;99.90;;;;;;5065630;28;20629;-75
2023/07/19 05:56:19;;;;;;;4.10;3.70;;;18.80;99.90;;;;;;5063248;28;20677;-75
2023/07/19 05:58:48;;;;;;;3.43;2.90;;;18.90;99.90;;;;;;5064030;28;20637;-75
2023/07/19 06:01:17;;;;;;;4.50;4.00;;;18.90;99.90;;;;;;5065857;28;20653;-75
2023/07/19 06:03:44;;;;;;;3.63;2.80;;;19.00;99.90;;;;;;5066738;28;20661;-75
2023/07/19 06:06:12;;;;;;;3.00;2.70;;;19.10;99.90;;;;;;5066779;28;20669;-75
2023/07/19 06:08:40;;;;;;;2.90;2.70;;;19.10;99.90;;;;;;5067038;28;20730;-75
2023/07/19 06:11:07;;;;;;;3.17;2.77;;;19.20;99.90;;;;;;5057943;28;20707;-75
2023/07/19 06:13:34;;;;;;;2.90;2.70;;;19.30;99.90;;;;;;5066534;28;21004;-75
2023/07/19 06:16:02;;;;;;;4.63;4.10;;;19.40;99.90;;;;;;5060601;28;20662;-75
2023/07/19 06:18:29;;;;;;;3.90;3.30;;;19.60;99.90;;;;;;5067442;28;20632;-75
2023/07/19 06:20:56;;;;;;;3.27;3.00;;;19.60;99.90;;;;;;5069904;28;20654;-75
2023/07/19 06:23:23;;;;;;;3.20;2.90;;;19.70;99.90;;;;;;5069865;28;20745;-75
2023/07/19 06:25:50;;;;;;;4.97;3.70;;;19.90;99.90;;;;;;5056595;28;20660;-75
2023/07/19 06:28:17;;;;;;;3.70;2.63;;;19.90;99.90;;;;;;5069668;28;20613;-75
2023/07/19 06:30:44;;;;;;;4.73;3.57;;;20.00;99.90;;;;;;5067114;28;20657;-75
2023/07/19 06:33:12;;;;;;;3.30;2.87;;;20.10;99.90;;;;;;5065977;28;20622;-75
2023/07/19 06:35:38;;;;;;;5.47;3.00;;;20.30;99.90;;;;;;5070209;28;20706;-75
2023/07/19 06:38:05;;;;;;;4.10;3.10;;;20.40;99.90;;;;;;5068021;28;21185;-75
2023/07/19 06:40:32;;;;;;;4.67;3.10;;;20.30;99.90;;;;;;5069046;28;20652;-75
2023/07/19 06:42:59;;;;;;;3.23;2.90;;;20.50;99.90;;;;;;5068131;28;20728;-75
2023/07/19 06:45:26;;;;;;;4.27;3.40;;;20.70;99.90;;;;;;5069777;28;20672;-75
2023/07/19 06:47:53;;;;;;;3.80;3.40;;;20.80;99.90;;;;;;5069684;28;20654;-75
2023/07/19 06:50:21;;;;;;;3.20;2.90;;;20.90;99.90;;;;;;5069039;28;20621;-75
2023/07/19 06:52:48;;;;;;;4.10;3.47;;;21.00;99.90;;;;;;5060447;28;20633;-75
2023/07/19 06:55:14;;;;;;;4.60;3.10;;;21.00;99.90;;;;;;5066483;28;20704;-75
2023/07/19 06:57:41;;;;;;;5.77;3.87;;;21.10;99.90;;;;;;5065853;28;20721;-75
2023/07/19 07:00:09;;;;;;;5.50;4.60;;;21.30;99.90;;;;;;5069162;28;20623;-75
2023/07/19 07:02:37;;;;;;;3.73;2.77;;;21.30;99.90;;;;;;5068119;28;21348;-75
2023/07/19 07:05:04;;;;;;;3.77;3.37;;;21.40;99.90;;;;;;5065429;28;20668;-74
2023/07/19 07:07:32;;;;;;;2.43;2.23;;;21.50;99.90;;;;;;5068861;28;20657;-75
2023/07/19 07:10:04;;;;;;;4.20;3.00;;;21.50;99.90;;;;;;5065634;28;20666;-75
2023/07/19 07:12:31;;;;;;;3.50;2.73;;;21.60;99.90;;;;;;5063098;28;20633;-74
2023/07/19 07:14:59;;;;;;;3.37;2.80;;;21.70;99.90;;;;;;5067708;28;20655;-74
2023/07/19 07:17:26;;;;;;;4.67;2.63;;;21.80;98.30;;;;;;5057917;28;20647;-74
2023/07/19 07:19:53;;;;;;;3.00;2.33;;;22.00;98.20;;;;;;5061191;28;20635;-74
2023/07/19 07:22:20;;;;;;;4.33;2.97;;;22.00;97.00;;;;;;5061578;28;20646;-74
2023/07/19 07:24:48;;;;;;;2.73;2.53;;;22.10;96.80;;;;;;5063168;28;20626;-74
2023/07/19 07:27:15;;;;;;;4.40;2.60;;;22.20;96.10;;;;;;5060148;28;21035;-75
2023/07/19 07:29:42;;;;;;;2.30;2.10;;;22.30;96.50;;;;;;5066817;28;20651;-74
2023/07/19 07:32:09;;;;;;;3.50;2.63;;;22.40;94.20;;;;;;5066415;28;20661;-75
2023/07/19 07:34:36;;;;;;;2.50;2.30;;;22.50;95.40;;;;;;5067138;28;20624;-74
2023/07/19 07:37:03;;;;;;;2.70;2.20;;;22.60;92.80;;;;;;5066328;28;20651;-75
2023/07/19 07:39:30;;;;;;;3.43;2.50;;;22.70;93.80;;;;;;5068105;28;21005;-74
2023/07/19 07:41:58;;;;;;;2.30;2.10;;;22.80;92.30;;;;;;5068378;28;20655;-75
2023/07/19 07:44:25;;;;;;;4.20;2.40;;;23.00;92.00;;;;;;5068152;28;20657;-74
2023/07/19 07:46:52;;;;;;;2.20;2.00;;;23.10;91.60;;;;;;5068628;28;20686;-75
2023/07/19 07:49:19;;;;;;;2.53;2.33;;;23.10;91.30;;;;;;5066706;28;20743;-75
2023/07/19 07:51:45;;;;;;;2.20;1.87;;;23.10;91.00;;;;;;5068680;28;20671;-75
2023/07/19 07:54:12;;;;;;;2.20;2.00;;;23.30;91.70;;;;;;5069054;28;20956;-75
2023/07/19 07:56:39;;;;;;;2.30;2.10;;;23.30;87.90;;;;;;5062246;28;20650;-75
2023/07/19 07:59:07;;;;;;;2.10;1.60;;;23.40;88.70;;;;;;5067619;28;20633;-75
2023/07/19 08:01:34;;;;;;;5.67;2.17;;;23.30;87.10;;;;;;5061961;28;20657;-75
2023/07/19 08:04:02;;;;;;;2.20;2.00;;;23.30;85.60;;;;;;5067889;28;20619;-74
2023/07/19 08:06:28;;;;;;;7.20;2.60;;;23.30;87.10;;;;;;5065571;28;20649;-74
2023/07/19 08:08:55;;;;;;;1.93;1.73;;;23.30;83.80;;;;;;5059596;28;20647;-75
2023/07/19 08:11:24;;;;;;;2.20;1.40;;;23.40;82.80;;;;;;5059273;28;20661;-75
2023/07/19 08:13:51;;;;;;;1.80;1.70;;;23.40;82.60;;;;;;5062589;28;20725;-75
2023/07/19 08:16:20;;;;;;;1.87;1.77;;;23.40;81.40;;;;;;5058944;28;20754;-75
2023/07/19 08:18:46;;;;;;;1.10;1.10;;;23.50;80.60;;;;;;5067424;28;20628;-75
2023/07/19 08:21:13;;;;;;;3.00;1.17;;;23.50;85.30;;;;;;5067389;28;20752;-75
2023/07/19 08:23:40;;;;;;;1.77;1.50;;;23.50;81.50;;;;;;5067346;28;20718;-75
2023/07/19 08:26:07;;;;;;;4.67;1.33;;;23.50;78.20;;;;;;5059626;28;20658;-75
2023/07/19 08:28:34;;;;;;;1.30;1.20;;;23.70;74.90;;;;;;5068528;28;21292;-75
2023/07/19 08:31:01;;;;;;;5.33;1.30;;;23.80;73.50;;;;;;5062419;28;20679;-75
2023/07/19 08:33:29;;;;;;;1.40;1.30;;;23.90;76.00;;;;;;5067018;28;20738;-75
2023/07/19 08:35:55;;;;;;;1.33;1.10;;;24.00;75.90;;;;;;5067494;28;21005;-75
2023/07/19 08:38:22;;;;;;;2.30;1.20;;;24.20;76.50;;;;;;5062946;28;20995;-75
2023/07/19 08:40:58;;;;;;;2.03;1.40;;;24.30;72.70;;;;;;5067118;28;21207;-75
2023/07/19 08:43:26;;;;;;;1.27;1.27;;;24.40;71.40;;;;;;5065976;28;20641;-75
2023/07/19 08:45:53;;;;;;;2.33;1.50;;;24.60;68.20;;;;;;5067497;28;20649;-75
2023/07/19 08:48:21;;;;;;;2.03;1.40;;;24.70;69.80;;;;;;5067854;28;20758;-75
2023/07/19 08:50:55;;;;;;;1.87;1.43;;;24.80;72.00;;;;;;5057607;28;20652;-75
2023/07/19 08:53:21;;;;;;;2.10;1.53;;;24.90;66.50;;;;;;5061380;28;21201;-75
2023/07/19 08:55:48;;;;;;;1.73;1.40;;;25.00;66.50;;;;;;5065170;28;20748;-75
2023/07/19 08:58:18;;;;;;;2.60;1.40;;;25.00;66.00;;;;;;5060645;28;20629;-75
2023/07/19 09:00:46;;;;;;;2.83;0.97;;;25.10;66.60;;;;;;5066716;28;20910;-75
2023/07/19 09:03:14;;;;;;;1.50;1.40;;;25.20;65.20;;;;;;5066727;28;20738;-75
2023/07/19 09:05:41;;;;;;;1.23;1.13;;;25.40;67.90;;;;;;5066014;28;21218;-75
2023/07/19 09:08:10;;;;;;;2.00;1.90;;;25.40;61.80;;;;;;5067360;28;20662;-75
2023/07/19 09:10:37;;;;;;;1.53;1.10;;;25.50;64.10;;;;;;5066367;28;21046;-75
2023/07/19 09:13:05;;;;;;;2.30;0.90;;;25.60;59.80;;;;;;5062259;28;21193;-75
2023/07/19 09:15:35;;;;;;;1.73;1.60;;;25.60;58.20;;;;;;5067162;28;20649;-75
2023/07/19 09:18:05;;;;;;;2.10;1.50;;;25.70;60.20;;;;;;5067634;28;20629;-75
2023/07/19 09:20:34;;;;;;;1.40;1.20;;;25.70;61.00;;;;;;5066696;28;20680;-75
2023/07/19 09:23:05;;;;;;;1.33;1.23;;;25.80;61.30;;;;;;5065978;28;20632;-74
2023/07/19 09:25:34;;;;;;;1.40;1.30;;;25.90;58.10;;;;;;5067463;28;20651;-75
2023/07/19 09:28:07;;;;;;;1.57;1.30;;;26.00;58.70;;;;;;5066722;28;20663;-75
2023/07/19 09:30:34;;;;;;;2.23;1.07;;;26.10;58.40;;;;;;5059151;28;20653;-75
2023/07/19 09:33:01;;;;;;;1.80;1.30;;;26.10;56.90;;;;;;5066648;28;20643;-75
2023/07/19 09:35:30;;;;;;;1.90;1.20;;;26.20;59.30;;;;;;5066548;28;21263;-75
2023/07/19 09:37:58;;;;;;;1.70;1.60;;;26.10;58.20;;;;;;5067148;28;21032;-75
2023/07/19 09:40:25;;;;;;;1.63;1.53;;;26.10;55.80;;;;;;5066595;28;20652;-75
2023/07/19 09:42:55;;;;;;;1.33;1.20;;;26.10;57.10;;;;;;5061010;28;21075;-75
2023/07/19 09:45:24;;;;;;;1.63;1.37;;;26.30;55.50;;;;;;5064358;28;21197;-75
2023/07/19 09:47:52;;;;;;;2.03;1.60;;;26.40;56.20;;;;;;5066891;28;20702;-75
2023/07/19 09:50:20;;;;;;;1.73;1.63;;;26.30;55.70;;;;;;5065922;28;20632;-75
2023/07/19 09:52:50;;;;;;;2.50;1.10;;;26.40;56.70;;;;;;5066051;28;20637;-75
2023/07/19 09:55:19;;;;;;;1.70;1.60;;;26.60;56.10;;;;;;5062384;28;20631;-75
2023/07/19 09:57:48;;;;;;;1.07;1.07;;;26.70;55.60;;;;;;5068216;28;20629;-75
2023/07/19 10:00:17;;;;;;;1.70;1.13;;;26.70;55.50;;;;;;5070028;28;21062;-75
2023/07/19 10:02:44;;;;;;;2.07;1.67;;;26.90;57.00;;;;;;5069231;28;20625;-75
2023/07/19 10:05:12;;;;;;;1.60;1.30;;;27.30;56.20;;;;;;5070645;28;20690;-76
2023/07/19 10:07:42;;;;;;;1.47;1.20;;;27.30;55.10;;;;;;5070567;28;21038;-75
2023/07/19 10:10:14;;;;;;;1.83;1.60;;;27.40;55.80;;;;;;5060976;28;20668;-75
2023/07/19 10:12:47;;;;;;;2.23;1.70;;;27.30;55.40;;;;;;5070332;28;20649;-75
2023/07/19 10:15:16;;;;;;;2.83;2.00;;;27.30;55.40;;;;;;5061001;28;20628;-75
2023/07/19 10:17:56;;;;;;;1.87;1.70;;;27.40;57.10;;;;;;5070051;28;20621;-75
2023/07/19 10:20:27;;;;;;;2.03;1.50;;;27.50;54.20;;;;;;5061447;28;20621;-75
2023/07/19 10:22:56;;;;;;;1.70;1.60;;;27.60;54.90;;;;;;5057524;28;20631;-76
2023/07/19 10:25:25;;;;;;;3.70;2.00;;;27.60;54.40;;;;;;5066981;28;21194;-77
2023/07/19 10:27:57;;;;;;;1.57;1.47;;;27.70;53.00;;;;;;5070658;28;20715;-77
2023/07/19 10:30:39;;;;;;;1.90;1.80;;;27.70;54.90;;;;;;5066966;28;21208;-77
2023/07/19 10:33:07;;;;;;;1.90;1.70;;;27.90;54.30;;;;;;5070111;28;20636;-77
2023/07/19 10:35:34;;;;;;;1.37;1.27;;;28.10;55.10;;;;;;5062084;28;20641;-76
2023/07/19 10:38:01;;;;;;;3.77;1.60;;;28.30;55.50;;;;;;5069860;28;20617;-76
2023/07/19 10:40:27;;;;;;;1.97;1.53;;;28.20;52.00;;;;;;5069059;28;20656;-76
2023/07/19 10:42:54;;;;;;;1.23;1.13;;;28.50;53.60;;;;;;5067734;28;20983;-76
2023/07/19 10:45:25;;;;;;;1.83;1.43;;;28.40;52.80;;;;;;5068641;28;20974;-77
2023/07/19 10:47:52;;;;;;;1.33;1.23;;;28.10;53.80;;;;;;5069727;28;20677;-77
2023/07/19 10:50:25;;;;;;;1.83;1.73;;;28.10;54.80;;;;;;5068473;28;20621;-77
2023/07/19 10:52:52;;;;;;;1.53;1.43;;;28.30;54.70;;;;;;5060311;28;20725;-76
2023/07/19 10:55:18;;;;;;;3.53;1.30;;;28.30;53.00;;;;;;5068834;28;21166;-77
2023/07/19 10:57:47;;;;;;;3.53;1.50;;;28.20;52.90;;;;;;5064144;28;21070;-76
2023/07/19 11:00:15;;;;;;;1.73;1.63;;;28.50;52.10;;;;;;5063685;28;20657;-76
2023/07/19 11:02:41;;;;;;;2.90;1.60;;;28.70;53.70;;;;;;5068457;28;20633;-76
2023/07/19 11:05:09;;;;;;;1.83;1.40;;;28.50;51.70;;;;;;5068794;28;21245;-76
2023/07/19 11:07:37;;;;;;;1.40;1.30;;;28.80;54.80;;;;;;5069499;28;20681;-77
2023/07/19 11:10:05;;;;;;;3.47;1.73;;;29.10;53.80;;;;;;5069027;28;20617;-76
2023/07/19 11:12:32;;;;;;;1.70;1.60;;;29.10;52.50;;;;;;5069077;28;20722;-77
2023/07/19 11:15:01;;;;;;;1.70;1.60;;;29.20;53.40;;;;;;5069287;28;20618;-76
2023/07/19 11:17:28;;;;;;;5.70;1.40;;;29.00;53.20;;;;;;5069007;28;20782;-77
2023/07/19 11:19:55;;;;;;;2.20;1.67;;;28.60;51.30;;;;;;5065040;28;20645;-77
2023/07/19 11:22:24;;;;;;;2.97;1.83;;;28.60;54.40;;;;;;5069447;28;21161;-78
2023/07/19 11:24:53;;;;;;;4.30;1.40;;;28.30;52.40;;;;;;5069370;28;20709;-78
2023/07/19 11:27:21;;;;;;;6.33;2.10;;;28.00;52.90;;;;;;5069223;28;20637;-78
2023/07/19 11:29:50;;;;;;;2.13;1.93;;;28.10;52.80;;;;;;5065687;28;21217;-77
2023/07/19 11:32:18;;;;;;;1.60;1.50;;;28.60;54.20;;;;;;5066016;28;20645;-78
2023/07/19 11:34:49;;;;;;;1.50;1.40;;;28.60;51.70;;;;;;5069273;28;20625;-78
2023/07/19 11:37:18;;;;;;;4.30;2.27;;;28.50;52.40;;;;;;5068561;28;20641;-78
2023/07/19 11:39:45;;;;;;;1.73;1.63;;;28.10;53.60;;;;;;5068862;28;20618;-78
2023/07/19 11:42:13;;;;;;;3.93;1.90;;;28.10;53.20;;;;;;5068149;28;20646;-77
2023/07/19 11:44:44;;;;;;;1.90;1.80;;;28.20;52.90;;;;;;5067471;28;20720;-77
2023/07/19 11:47:11;;;;;;;9.30;1.70;;;28.10;53.20;;;;;;5068713;28;20641;-78
2023/07/19 11:49:38;;;;;;;2.90;1.70;;;28.30;53.00;;;;;;5059552;28;20663;-77
2023/07/19 11:52:05;;;;;;;3.17;2.10;;;28.20;52.50;;;;;;5068719;28;20755;-78
2023/07/19 11:54:32;;;;;;;1.77;1.67;;;28.20;52.90;;;;;;5068095;28;20630;-78
2023/07/19 11:56:59;;;;;;;2.10;2.00;;;28.00;53.30;;;;;;5065618;28;20674;-77
2023/07/19 11:59:27;;;;;;;1.40;1.30;;;27.90;52.00;;;;;;5067553;28;20679;-78
2023/07/19 12:01:54;;;;;;;1.97;1.77;;;28.40;53.70;;;;;;5068247;28;20744;-78
2023/07/19 12:04:21;;;;;;;1.97;1.77;;;28.80;52.90;;;;;;5067435;28;20652;-76
2023/07/19 12:06:48;;;;;;;3.17;1.80;;;28.80;52.70;;;;;;5068160;28;20645;-79
2023/07/19 12:09:15;;;;;;;1.43;1.33;;;28.60;52.00;;;;;;5067243;28;20654;-77
2023/07/19 12:11:42;;;;;;;2.00;1.87;;;29.10;53.20;;;;;;5060237;28;21070;-76
2023/07/19 12:14:09;;;;;;;4.27;2.23;;;29.00;51.30;;;;;;5059063;28;20724;-76
2023/07/19 12:16:37;;;;;;;2.40;2.20;;;28.90;52.80;;;;;;5062339;28;21079;-76
2023/07/19 12:19:04;;;;;;;9.27;2.03;;;29.10;51.90;;;;;;5067138;28;20628;-76
2023/07/19 12:21:31;;;;;;;2.90;2.20;;;29.60;52.60;;;;;;5067197;28;20641;-76
2023/07/19 12:23:58;;;;;;;2.90;2.27;;;30.00;50.80;;;;;;5067169;28;20636;-76
2023/07/19 12:26:26;;;;;;;2.00;1.90;;;30.40;48.00;;;;;;5067109;28;20637;-76
2023/07/19 12:28:53;;;;;;;2.57;2.37;;;30.90;51.90;;;;;;5065725;28;21045;-76
2023/07/19 12:31:19;;;;;;;2.00;1.90;;;31.70;48.40;;;;;;5066735;28;20637;-77
2023/07/19 12:33:49;;;;;;;3.00;2.70;;;31.80;46.60;;;;;;5062324;28;20724;-77
2023/07/19 12:36:16;;;;;;;3.40;2.37;;;31.80;47.60;;;;;;5067256;28;20755;-76
2023/07/19 12:38:42;;;;;;;9.20;1.87;;;31.50;47.70;;;;;;5060522;28;20660;-76
2023/07/19 12:41:09;;;;;;;2.50;2.07;;;31.60;49.70;;;;;;5067392;28;21006;-77
2023/07/19 12:43:37;;;;;;;1.97;1.77;;;32.60;49.80;;;;;;5067343;28;21193;-77
2023/07/19 12:46:03;;;;;;;1.90;1.80;;;33.70;49.10;;;;;;5064899;28;20649;-77
2023/07/19 12:48:30;;;;;;;2.20;2.07;;;34.80;46.50;;;;;;5065650;28;20657;-77
2023/07/19 12:50:58;;;;;;;2.30;2.10;;;34.30;45.80;;;;;;5066254;28;20659;-75